KALB/ALB METAR and TAF weather

Enter ICAO airport designator
Station Type Date Time Source
KALB METAR 2019/06/18 14:51 UTC NOAA

KALB 181451Z 00000KT 8SM -RA BKN022 OVC070 18/14 A2997 RMK AO2 SLP147 P0001 60001 T01780144 58001


Station Type Date Time Source
KALB Decoded METAR 2019/06/18 14:51 UTC NOAA

ALBANY INTERNATIONAL AIRPORT, NY, United States (KALB) 42-45N 73-48W
Jun 18, 2019 - 10:51 AM EDT / 2019.06.18 1451 UTC
Wind: Calm:0
Visibility: 8 mile(s):0
Sky conditions: overcast
Weather: light rain
Precipitation last hour: 0.01 inches
Temperature: 64.0 F (17.8 C)
Dew Point: 57.9 F (14.4 C)
Relative Humidity: 80%
Pressure (altimeter): 29.97 in. Hg (1014 hPa)
Pressure tendency: 0.00 inches (0.1 hPa) lower than three hours ago
ob: KALB 181451Z 00000KT 8SM -RA BKN022 OVC070 18/14 A2997 RMK AO2 SLP147 P0001 60001 T01780144 58001
cycle: 15

Station Type Date Time Source
KALB TAF 2019/06/18 12:42 UTC NOAA

TAF KALB 181139Z 1812/1912 VRB03KT P6SM SCT015 OVC200
TEMPO 1812/1814 BKN015
FM181400 VRB03KT P6SM VCSH OVC025
TEMPO 1814/1818 5SM -SHRA BKN015
FM181800 VRB05KT P6SM SCT030 BKN040
FM190700 00000KT 3SM BR BKN010

Example: see airport list